CPX798 Details

Departure: Arturo Merino Benitez International Airport (SCEL)
Arrival: Miami International Airport (KMIA)
Route: IKBIX Y183 PEAKY DVALL CURSO5


Current Weather Information
SCEL 212300Z 16007KT CAVOK 10/03 Q1020 NOSIG
KMIA 212253Z 12012KT 10SM FEW040 FEW060 FEW250 29/20 A2993 RMK AO2 SLP136 T02890200